Terminal Aerodrome Forecast
Issued by NWS

Home | Current Version | Previous Version | Text Only | Print | Product List | Glossary On
Versions: 1 2 3 4 5 6 7 8 9 10 11 12 13 14 15 16 17 18 19 20 21 22 23 24
274
FTUS46 KSEW 121130
TAFSEA
TAF
KSEA 121130Z 1212/1318 17006KT P6SM -RA SCT006 OVC025
      TEMPO 1212/1215 5SM -RA BR BKN006 OVC025
     FM121900 20014KT P6SM VCSH SCT025 BKN040 BKN060
     FM131000 18008KT P6SM BKN025 OVC040=

USA.gov is the U.S. government's official web portal to all federal, state and local government web resources and services.